createdAt,value
2023-06-07T00:00:10.672Z,17.42
2023-06-07T00:03:02.968Z,17.41
2023-06-07T00:05:32.238Z,17.40
2023-06-07T00:08:01.065Z,17.39
2023-06-07T00:10:30.566Z,17.39
2023-06-07T00:12:59.776Z,17.40
2023-06-07T00:15:28.514Z,17.40
2023-06-07T00:18:01.360Z,17.39
2023-06-07T00:20:31.464Z,17.38
2023-06-07T00:23:02.353Z,17.38
2023-06-07T00:25:31.564Z,17.39
2023-06-07T00:28:00.418Z,17.40
2023-06-07T00:30:29.158Z,17.40
2023-06-07T00:32:58.005Z,17.39
2023-06-07T00:35:26.962Z,17.36
2023-06-07T00:37:55.886Z,17.33
2023-06-07T00:40:24.573Z,17.31
2023-06-07T00:42:53.523Z,17.29
2023-06-07T00:45:22.332Z,17.30
2023-06-07T00:47:51.249Z,17.32
2023-06-07T00:50:20.218Z,17.33
2023-06-07T00:52:50.274Z,17.34
2023-06-07T00:55:19.484Z,17.35
2023-06-07T00:57:48.397Z,17.33
2023-06-07T01:00:17.596Z,17.32
2023-06-07T01:02:47.180Z,17.30
2023-06-07T01:05:16.011Z,17.30
2023-06-07T01:07:47.021Z,17.29
2023-06-07T01:10:17.050Z,17.28
2023-06-07T01:12:46.197Z,17.27
2023-06-07T01:15:15.339Z,17.27
2023-06-07T01:17:45.126Z,17.26
2023-06-07T01:20:19.249Z,17.25
2023-06-07T01:22:50.553Z,17.24
2023-06-07T01:25:20.300Z,17.24
2023-06-07T01:27:53.151Z,17.24
2023-06-07T01:30:24.151Z,17.25
2023-06-07T01:32:53.470Z,17.25
2023-06-07T01:35:23.365Z,17.26
2023-06-07T01:37:53.120Z,17.24
2023-06-07T01:40:24.782Z,17.24
2023-06-07T01:42:57.564Z,17.24
2023-06-07T01:45:26.754Z,17.23
2023-06-07T01:47:55.787Z,17.21
2023-06-07T01:50:24.560Z,17.19
2023-06-07T01:52:53.455Z,17.19
2023-06-07T01:55:23.535Z,17.16
2023-06-07T01:58:01.343Z,17.14
2023-06-07T02:00:36.195Z,17.11
2023-06-07T02:03:07.971Z,17.10
2023-06-07T02:05:42.140Z,17.07
2023-06-07T02:08:17.993Z,17.04
2023-06-07T02:10:48.804Z,17.01
2023-06-07T02:13:19.738Z,16.96
2023-06-07T02:15:48.498Z,16.92
2023-06-07T02:18:20.824Z,16.86
2023-06-07T02:20:49.958Z,16.83
2023-06-07T02:23:18.697Z,16.80
2023-06-07T02:25:47.436Z,16.77
2023-06-07T02:28:19.214Z,16.76
2023-06-07T02:30:48.104Z,16.75
2023-06-07T02:33:16.813Z,16.75
2023-06-07T02:35:46.312Z,16.76
2023-06-07T02:38:15.413Z,16.77
2023-06-07T02:40:44.120Z,16.78
2023-06-07T02:43:13.009Z,16.79
2023-06-07T02:45:41.888Z,16.80
2023-06-07T02:48:10.771Z,16.82
2023-06-07T02:50:39.684Z,16.83
2023-06-07T02:53:08.440Z,16.86
2023-06-07T02:55:37.258Z,16.90
2023-06-07T02:58:06.350Z,16.92
2023-06-07T03:00:36.343Z,16.92
2023-06-07T03:03:09.716Z,16.92
2023-06-07T03:05:41.597Z,16.92
2023-06-07T03:08:11.530Z,16.91
2023-06-07T03:10:40.787Z,16.90
2023-06-07T03:13:10.114Z,16.92
2023-06-07T03:15:39.426Z,16.94
2023-06-07T03:18:09.234Z,16.96
2023-06-07T03:20:39.977Z,16.96
2023-06-07T03:23:13.451Z,16.96
2023-06-07T03:25:45.709Z,16.97
2023-06-07T03:28:15.360Z,16.98
2023-06-07T03:30:45.821Z,16.99
2023-06-07T03:33:14.820Z,17.01
2023-06-07T03:35:45.025Z,17.00
2023-06-07T03:38:15.995Z,16.98
2023-06-07T03:43:53.724Z,16.90
2023-06-07T03:46:23.106Z,16.89
2023-06-07T03:48:53.179Z,16.89
2023-06-07T03:51:22.240Z,16.87
2023-06-07T03:53:51.419Z,16.85
2023-06-07T03:56:20.150Z,16.84
2023-06-07T03:58:48.853Z,16.82
2023-06-07T04:01:19.701Z,16.82
2023-06-07T04:03:48.844Z,16.82
2023-06-07T04:06:20.946Z,16.84
2023-06-07T04:08:49.096Z,16.87
2023-06-07T04:11:17.774Z,16.87
2023-06-07T04:13:46.787Z,16.87
2023-06-07T04:16:16.021Z,16.86
2023-06-07T04:18:46.660Z,16.87
2023-06-07T04:21:15.896Z,16.91
2023-06-07T04:23:45.899Z,16.96
2023-06-07T04:26:22.357Z,17.04
2023-06-07T04:28:51.298Z,17.13
2023-06-07T04:31:23.164Z,17.22
2023-06-07T04:33:52.100Z,17.34
2023-06-07T04:36:21.096Z,17.43
2023-06-07T04:38:58.385Z,17.49
2023-06-07T04:41:33.265Z,17.58
2023-06-07T04:44:03.824Z,17.67
2023-06-07T04:46:39.878Z,17.77
2023-06-07T04:49:17.781Z,17.84
2023-06-07T04:51:49.049Z,17.93
2023-06-07T04:54:18.577Z,17.97
2023-06-07T04:56:51.928Z,18.03
2023-06-07T04:59:20.770Z,18.09
2023-06-07T05:01:50.322Z,18.15
2023-06-07T05:04:19.294Z,18.23
2023-06-07T05:06:55.746Z,18.28
2023-06-07T05:09:23.693Z,18.38
2023-06-07T05:11:52.718Z,18.46
2023-06-07T05:14:21.558Z,18.56
2023-06-07T05:16:51.558Z,18.66
2023-06-07T05:19:22.450Z,18.76
2023-06-07T05:21:51.808Z,18.83
2023-06-07T05:24:21.039Z,18.93
2023-06-07T05:26:50.212Z,19.03
2023-06-07T05:29:19.035Z,19.12
2023-06-07T05:31:47.923Z,19.20
2023-06-07T05:34:16.901Z,19.29
2023-06-07T05:36:48.480Z,19.33
2023-06-07T05:39:17.748Z,19.39
2023-06-07T05:41:46.797Z,19.42
2023-06-07T05:44:15.752Z,19.45
2023-06-07T05:46:44.479Z,19.54
2023-06-07T05:49:13.309Z,19.64
2023-06-07T05:51:42.497Z,19.73
2023-06-07T05:54:11.522Z,19.85
2023-06-07T05:56:40.342Z,19.96
2023-06-07T05:59:09.259Z,20.06
2023-06-07T06:01:38.084Z,20.18
2023-06-07T06:04:07.046Z,20.25
2023-06-07T06:06:36.842Z,20.36
2023-06-07T06:09:05.885Z,20.50
2023-06-07T06:11:34.717Z,20.61
2023-06-07T06:14:03.687Z,20.70
2023-06-07T06:16:32.554Z,20.78
2023-06-07T06:19:01.413Z,20.87
2023-06-07T06:21:30.239Z,20.95
2023-06-07T06:23:59.047Z,21.02
2023-06-07T06:26:28.310Z,21.12
2023-06-07T06:28:58.616Z,21.21
2023-06-07T06:31:28.714Z,21.30
2023-06-07T06:33:59.777Z,21.37
2023-06-07T06:36:29.278Z,21.45
2023-06-07T06:38:58.224Z,21.54
2023-06-07T06:41:27.124Z,21.63
2023-06-07T06:43:56.048Z,21.71
2023-06-07T06:46:24.785Z,21.88
2023-06-07T06:49:10.692Z,22.03
2023-06-07T06:51:43.231Z,22.23
2023-06-07T06:54:14.300Z,22.38
2023-06-07T06:56:43.232Z,22.51
2023-06-07T06:59:12.235Z,22.62
2023-06-07T07:01:46.421Z,22.71
2023-06-07T07:04:16.058Z,22.86
2023-06-07T07:06:45.326Z,22.99
2023-06-07T07:09:14.401Z,23.14
2023-06-07T07:11:43.370Z,23.21
2023-06-07T07:14:12.331Z,23.29
2023-06-07T07:16:41.434Z,23.42
2023-06-07T07:19:10.503Z,23.56
2023-06-07T07:21:39.546Z,23.67
2023-06-07T07:24:09.808Z,23.72
2023-06-07T07:26:39.767Z,23.67
2023-06-07T07:29:08.976Z,23.59
2023-06-07T07:31:38.353Z,23.60
2023-06-07T07:34:07.200Z,23.72
2023-06-07T07:36:36.093Z,23.87
2023-06-07T07:39:06.005Z,23.94
2023-06-07T07:41:40.704Z,24.12
2023-06-07T07:44:10.154Z,24.33
2023-06-07T07:46:39.204Z,24.52
2023-06-07T07:49:09.946Z,24.61
2023-06-07T07:51:38.858Z,24.76
2023-06-07T07:54:08.553Z,24.85
2023-06-07T07:56:37.532Z,24.89
2023-06-07T07:59:06.711Z,24.89
2023-06-07T08:01:35.590Z,24.97
2023-06-07T08:04:05.087Z,24.99
2023-06-07T08:06:33.951Z,25.03
2023-06-07T08:09:03.373Z,25.18
2023-06-07T08:11:32.253Z,25.26
2023-06-07T08:14:01.121Z,25.33
2023-06-07T08:16:30.773Z,25.41
2023-06-07T08:19:00.349Z,25.39
2023-06-07T08:21:29.182Z,25.25
2023-06-07T08:23:58.176Z,25.16
2023-06-07T08:26:27.083Z,25.08
2023-06-07T08:28:55.944Z,25.01
2023-06-07T08:31:27.642Z,24.95
2023-06-07T08:33:56.515Z,24.84
2023-06-07T08:36:25.655Z,24.85
2023-06-07T08:38:54.525Z,24.87
2023-06-07T08:41:23.372Z,24.86
2023-06-07T08:43:52.442Z,24.79
2023-06-07T08:46:23.852Z,24.77
2023-06-07T08:48:56.121Z,24.79
2023-06-07T08:51:26.935Z,24.86
2023-06-07T08:53:57.424Z,25.01
2023-06-07T08:56:29.021Z,25.12
2023-06-07T08:58:58.455Z,25.23
2023-06-07T09:01:31.660Z,25.34
2023-06-07T09:04:01.075Z,25.46
2023-06-07T09:06:29.978Z,25.64
2023-06-07T09:08:58.750Z,25.90
2023-06-07T09:11:27.515Z,26.35
2023-06-07T09:13:57.763Z,26.88
2023-06-07T09:16:26.648Z,27.23
2023-06-07T09:18:55.963Z,27.44
2023-06-07T09:21:26.824Z,27.66
2023-06-07T09:23:58.417Z,27.87
2023-06-07T09:26:37.773Z,28.04
2023-06-07T09:29:07.202Z,28.04
2023-06-07T09:31:37.252Z,28.04
2023-06-07T09:34:20.978Z,27.96
2023-06-07T09:36:57.268Z,27.75
2023-06-07T09:39:27.428Z,27.61
2023-06-07T09:41:57.733Z,27.58
2023-06-07T09:44:27.752Z,27.55
2023-06-07T09:46:57.568Z,27.52
2023-06-07T09:49:29.125Z,27.56
2023-06-07T09:51:58.116Z,27.78
2023-06-07T09:54:40.526Z,28.23
2023-06-07T09:57:10.839Z,28.87
2023-06-07T09:59:56.109Z,29.26
2023-06-07T10:02:26.053Z,29.62
2023-06-07T10:04:59.074Z,30.03
2023-06-07T10:07:32.622Z,30.07
2023-06-07T10:10:03.325Z,29.91
2023-06-07T10:12:33.260Z,29.65
2023-06-07T10:15:03.988Z,29.16
2023-06-07T10:17:44.974Z,28.98
2023-06-07T10:20:20.280Z,28.94
2023-06-07T10:22:50.984Z,28.86
2023-06-07T10:25:23.277Z,28.67
2023-06-07T10:28:02.830Z,28.37
2023-06-07T10:30:33.283Z,28.18
2023-06-07T10:33:05.282Z,27.97
2023-06-07T10:35:35.341Z,27.80
2023-06-07T10:38:04.133Z,27.53
2023-06-07T10:40:33.371Z,27.43
2023-06-07T10:43:03.820Z,27.44
2023-06-07T10:45:32.860Z,27.44
2023-06-07T10:48:34.589Z,27.36
2023-06-07T10:51:02.836Z,27.17
2023-06-07T10:53:52.507Z,27.04
2023-06-07T10:56:31.879Z,26.96
2023-06-07T10:59:21.891Z,26.95
2023-06-07T11:01:53.158Z,26.89
2023-06-07T11:04:51.656Z,26.81
2023-06-07T11:07:22.862Z,26.67
2023-06-07T11:10:25.763Z,26.69
2023-06-07T11:12:59.165Z,26.75
2023-06-07T11:15:36.294Z,26.75
2023-06-07T11:18:09.042Z,26.79
2023-06-07T11:20:53.803Z,26.85
2023-06-07T11:23:25.041Z,26.87
2023-06-07T11:25:56.296Z,26.82
2023-06-07T11:28:27.835Z,26.79
2023-06-07T11:30:57.440Z,26.73
2023-06-07T11:33:27.701Z,26.72
2023-06-07T11:35:57.284Z,26.73
2023-06-07T11:38:27.168Z,26.83
2023-06-07T11:40:57.019Z,26.90
2023-06-07T11:43:27.036Z,26.88
2023-06-07T11:45:58.020Z,26.79
2023-06-07T11:48:31.289Z,26.73
2023-06-07T11:51:01.276Z,26.66
2023-06-07T11:53:31.227Z,26.59
2023-06-07T11:56:00.421Z,26.55
2023-06-07T11:58:29.752Z,26.52
2023-06-07T12:00:59.098Z,26.49
2023-06-07T12:03:28.604Z,26.48
2023-06-07T12:05:58.713Z,26.52
2023-06-07T12:08:33.516Z,26.54
2023-06-07T12:11:03.972Z,26.48
2023-06-07T12:13:40.038Z,26.42
2023-06-07T12:16:09.445Z,26.37
2023-06-07T12:18:38.845Z,26.27
2023-06-07T12:21:09.196Z,26.20
2023-06-07T12:23:39.468Z,26.09
2023-06-07T12:26:09.824Z,26.05
2023-06-07T12:28:40.308Z,26.04
2023-06-07T12:31:17.915Z,25.99
2023-06-07T12:33:58.485Z,25.86
2023-06-07T12:36:31.634Z,25.79
2023-06-07T12:39:01.374Z,25.76
2023-06-07T12:41:30.655Z,25.74
2023-06-07T12:44:02.071Z,25.74
2023-06-07T12:46:34.117Z,25.70
2023-06-07T12:49:03.697Z,25.73
2023-06-07T12:51:35.001Z,25.76
2023-06-07T12:54:04.718Z,25.77
2023-06-07T12:56:34.451Z,25.79
2023-06-07T12:59:07.423Z,25.81
2023-06-07T13:01:41.107Z,25.85
2023-06-07T13:04:11.506Z,25.84
2023-06-07T13:06:43.957Z,25.82
2023-06-07T13:09:13.359Z,25.80
2023-06-07T13:11:47.582Z,25.78
2023-06-07T13:14:16.847Z,25.70
2023-06-07T13:16:49.829Z,25.57
2023-06-07T13:19:19.222Z,25.41
2023-06-07T13:21:48.869Z,25.26
2023-06-07T13:24:17.780Z,25.06
2023-06-07T13:26:47.039Z,24.85
2023-06-07T13:29:17.752Z,24.71
2023-06-07T13:31:46.856Z,24.59
2023-06-07T13:34:15.702Z,24.44
2023-06-07T13:36:44.972Z,24.31
2023-06-07T13:39:13.858Z,24.26
2023-06-07T13:41:44.062Z,24.26
2023-06-07T13:44:17.982Z,24.28
2023-06-07T13:47:00.356Z,24.32
2023-06-07T13:49:40.800Z,24.39
2023-06-07T13:52:11.383Z,24.49
2023-06-07T13:54:48.047Z,24.61
2023-06-07T13:57:20.559Z,24.74
2023-06-07T13:59:52.776Z,24.89
2023-06-07T14:02:30.156Z,25.00
2023-06-07T14:05:02.202Z,25.07
2023-06-07T14:07:39.767Z,25.11
2023-06-07T14:10:09.909Z,25.13
2023-06-07T14:12:41.740Z,25.08
2023-06-07T14:15:39.702Z,25.03
2023-06-07T14:18:30.248Z,24.99
2023-06-07T14:21:30.374Z,24.96
2023-06-07T14:24:00.769Z,24.89
2023-06-07T14:26:29.561Z,24.80
2023-06-07T14:28:58.299Z,24.74
2023-06-07T14:31:28.293Z,24.72
2023-06-07T14:33:59.510Z,24.66
2023-06-07T14:36:28.432Z,24.59
2023-06-07T14:38:57.626Z,24.57
2023-06-07T14:41:29.649Z,24.61
2023-06-07T14:44:00.984Z,24.66
2023-06-07T14:46:29.890Z,24.70
2023-06-07T14:49:02.436Z,24.74
2023-06-07T14:51:31.435Z,24.76
2023-06-07T14:54:00.191Z,24.80
2023-06-07T14:56:29.072Z,24.88
2023-06-07T14:59:01.722Z,24.97
2023-06-07T15:01:31.727Z,25.05
2023-06-07T15:04:00.611Z,25.15
2023-06-07T15:06:30.294Z,25.23
2023-06-07T15:08:59.033Z,25.30
2023-06-07T15:11:34.878Z,25.39
2023-06-07T15:14:04.185Z,25.54
2023-06-07T15:16:33.122Z,25.67
2023-06-07T15:19:02.050Z,25.83
2023-06-07T15:21:30.968Z,25.93
2023-06-07T15:23:59.667Z,25.97
2023-06-07T15:26:29.655Z,25.95
2023-06-07T15:29:01.538Z,25.94
2023-06-07T15:31:30.567Z,25.95
2023-06-07T15:33:59.932Z,25.91
2023-06-07T15:36:40.607Z,25.72
2023-06-07T15:39:10.751Z,25.50
2023-06-07T15:41:40.683Z,25.36
2023-06-07T15:44:09.671Z,25.29
2023-06-07T15:46:39.403Z,25.17
2023-06-07T15:49:08.411Z,25.04
2023-06-07T15:51:37.474Z,24.97
2023-06-07T15:54:07.017Z,24.91
2023-06-07T15:56:36.118Z,24.86
2023-06-07T15:59:07.589Z,24.84
2023-06-07T16:01:36.760Z,24.82
2023-06-07T16:04:06.249Z,24.82
2023-06-07T16:06:37.641Z,24.76
2023-06-07T16:09:08.802Z,24.75
2023-06-07T16:11:42.177Z,24.69
2023-06-07T16:14:12.157Z,24.63
2023-06-07T16:17:00.635Z,24.56
2023-06-07T16:19:40.334Z,24.51
2023-06-07T16:22:12.833Z,24.48
2023-06-07T16:24:49.618Z,24.44
2023-06-07T16:27:28.233Z,24.42
2023-06-07T16:29:57.389Z,24.40
2023-06-07T16:32:26.269Z,24.39
2023-06-07T16:34:55.196Z,24.37
2023-06-07T16:37:24.296Z,24.36
2023-06-07T16:39:54.991Z,24.33
2023-06-07T16:42:27.218Z,24.31
2023-06-07T16:44:58.310Z,24.30
2023-06-07T16:47:37.807Z,24.26
2023-06-07T16:50:10.414Z,24.19
2023-06-07T16:52:55.327Z,24.06
2023-06-07T16:55:33.348Z,23.85
2023-06-07T16:58:12.663Z,23.68
2023-06-07T17:00:52.515Z,23.55
2023-06-07T17:03:24.409Z,23.38
2023-06-07T17:06:08.559Z,23.18
2023-06-07T17:08:42.154Z,23.06
2023-06-07T17:11:18.325Z,23.02
2023-06-07T17:13:53.307Z,23.03
2023-06-07T17:16:23.070Z,23.06
2023-06-07T17:19:02.147Z,23.03
2023-06-07T17:21:31.070Z,23.00
2023-06-07T17:23:59.965Z,23.00
2023-06-07T17:26:33.629Z,23.01
2023-06-07T17:29:20.320Z,22.99
2023-06-07T17:31:59.729Z,22.94
2023-06-07T17:34:43.052Z,22.88
2023-06-07T17:37:20.532Z,22.80
2023-06-07T17:39:51.827Z,22.72
2023-06-07T17:42:26.699Z,22.69
2023-06-07T17:45:02.659Z,22.67
2023-06-07T17:47:48.233Z,22.67
2023-06-07T17:50:37.295Z,22.67
2023-06-07T17:53:14.174Z,22.67
2023-06-07T17:55:45.268Z,22.65
2023-06-07T17:58:14.390Z,22.63
2023-06-07T18:00:46.675Z,22.56
2023-06-07T18:03:20.250Z,22.47
2023-06-07T18:05:49.925Z,22.38
2023-06-07T18:08:21.941Z,22.32
2023-06-07T18:10:52.012Z,22.22
2023-06-07T18:13:21.197Z,22.08
2023-06-07T18:15:51.597Z,21.94
2023-06-07T18:18:20.847Z,21.84
2023-06-07T18:20:49.819Z,21.74
2023-06-07T18:23:18.875Z,21.58
2023-06-07T18:25:48.635Z,21.38
2023-06-07T18:28:17.573Z,21.23
2023-06-07T18:30:49.494Z,21.08
2023-06-07T18:33:18.215Z,20.92
2023-06-07T18:35:47.717Z,20.82
2023-06-07T18:38:16.685Z,20.71
2023-06-07T18:40:45.989Z,20.60
2023-06-07T18:43:14.924Z,20.54
2023-06-07T18:45:43.899Z,20.50
2023-06-07T18:48:13.170Z,20.45
2023-06-07T18:50:41.970Z,20.36
2023-06-07T18:53:11.872Z,20.26
2023-06-07T18:55:40.781Z,20.19
2023-06-07T18:58:10.404Z,20.09
2023-06-07T19:00:39.276Z,20.07
2023-06-07T19:03:26.867Z,20.08
2023-06-07T19:05:56.718Z,20.07
2023-06-07T19:08:25.707Z,20.02
2023-06-07T19:10:58.611Z,19.99
2023-06-07T19:13:29.144Z,19.96
2023-06-07T19:16:04.148Z,19.87
2023-06-07T19:18:38.389Z,19.77
2023-06-07T19:21:18.413Z,19.74
2023-06-07T19:24:10.113Z,19.68
2023-06-07T19:26:41.119Z,19.56
2023-06-07T19:29:11.567Z,19.47
2023-06-07T19:31:42.707Z,19.40
2023-06-07T19:34:15.559Z,19.31
2023-06-07T19:36:47.460Z,19.25
2023-06-07T19:39:27.461Z,19.21
2023-06-07T19:42:02.299Z,19.17
2023-06-07T19:44:31.516Z,19.16
2023-06-07T19:47:02.525Z,19.15
2023-06-07T19:49:33.040Z,19.15
2023-06-07T19:52:04.075Z,19.15
2023-06-07T19:54:33.370Z,19.17
2023-06-07T19:57:03.155Z,19.16
2023-06-07T19:59:32.081Z,19.12
2023-06-07T20:02:04.514Z,19.06
2023-06-07T20:04:35.091Z,19.01
2023-06-07T20:07:10.841Z,18.98
2023-06-07T20:09:41.045Z,18.96
2023-06-07T20:12:12.097Z,18.98
2023-06-07T20:14:43.269Z,18.99
2023-06-07T20:17:12.244Z,19.00
2023-06-07T20:19:44.276Z,19.02
2023-06-07T20:22:13.488Z,19.03
2023-06-07T20:24:43.023Z,19.05
2023-06-07T20:27:12.804Z,19.09
2023-06-07T20:29:42.185Z,19.13
2023-06-07T20:32:11.140Z,19.14
2023-06-07T20:34:41.969Z,19.12
2023-06-07T20:37:11.517Z,19.07
2023-06-07T20:39:42.506Z,19.01
2023-06-07T20:42:12.162Z,18.95
2023-06-07T20:44:52.593Z,18.92
2023-06-07T20:47:22.892Z,18.94
2023-06-07T20:49:52.699Z,18.97
2023-06-07T20:52:21.642Z,19.02
2023-06-07T20:54:50.628Z,19.04
2023-06-07T20:57:19.457Z,19.06
2023-06-07T20:59:49.039Z,19.08
2023-06-07T21:02:18.126Z,19.10
2023-06-07T21:04:48.318Z,19.11
2023-06-07T21:07:17.285Z,19.12
2023-06-07T21:09:46.176Z,19.13
2023-06-07T21:12:15.201Z,19.11
2023-06-07T21:14:45.799Z,19.08
2023-06-07T21:17:14.714Z,19.04
2023-06-07T21:19:43.581Z,19.00
2023-06-07T21:22:12.483Z,18.96
2023-06-07T21:24:44.053Z,18.89
2023-06-07T21:27:12.939Z,18.79
2023-06-07T21:29:41.635Z,18.74
2023-06-07T21:32:11.155Z,18.72
2023-06-07T21:34:42.558Z,18.71
2023-06-07T21:37:12.429Z,18.72
2023-06-07T21:39:41.218Z,18.73
2023-06-07T21:42:11.837Z,18.72
2023-06-07T21:44:40.589Z,18.68
2023-06-07T21:47:09.521Z,18.65
2023-06-07T21:49:38.402Z,18.66
2023-06-07T21:52:09.110Z,18.68
2023-06-07T21:54:44.180Z,18.72
2023-06-07T21:57:13.426Z,18.73
2023-06-07T21:59:42.940Z,18.73
2023-06-07T22:02:12.436Z,18.74
2023-06-07T22:04:41.430Z,18.77
2023-06-07T22:07:10.313Z,18.79
2023-06-07T22:09:39.438Z,18.80
2023-06-07T22:12:17.122Z,18.78
2023-06-07T22:14:48.803Z,18.79
2023-06-07T22:17:17.682Z,18.80
2023-06-07T22:19:46.813Z,18.81
2023-06-07T22:22:15.540Z,18.80
2023-06-07T22:24:44.361Z,18.78
2023-06-07T22:27:13.251Z,18.78
2023-06-07T22:29:46.483Z,18.77
2023-06-07T22:32:15.692Z,18.76
2023-06-07T22:34:45.122Z,18.74
2023-06-07T22:37:17.248Z,18.74
2023-06-07T22:39:46.224Z,18.73
2023-06-07T22:42:14.998Z,18.70
2023-06-07T22:44:44.131Z,18.68
2023-06-07T22:47:12.939Z,18.65
2023-06-07T22:49:43.742Z,18.64
2023-06-07T22:52:12.546Z,18.63
2023-06-07T22:54:41.224Z,18.64
2023-06-07T22:57:22.167Z,18.63
2023-06-07T23:05:17.520Z,18.55
2023-06-07T23:07:49.560Z,18.53
2023-06-07T23:10:20.773Z,18.50
2023-06-07T23:12:53.265Z,18.46
2023-06-07T23:15:23.996Z,18.44
2023-06-07T23:17:53.554Z,18.39
2023-06-07T23:20:22.383Z,18.33
2023-06-07T23:22:52.006Z,18.26
2023-06-07T23:25:22.061Z,18.23
2023-06-07T23:27:51.875Z,18.23
2023-06-07T23:30:20.895Z,18.23
2023-06-07T23:32:49.692Z,18.25
2023-06-07T23:35:20.213Z,18.26
2023-06-07T23:37:49.390Z,18.26
2023-06-07T23:40:18.624Z,18.25
2023-06-07T23:42:47.641Z,18.24
2023-06-07T23:45:16.451Z,18.22
2023-06-07T23:47:46.559Z,18.19
2023-06-07T23:50:15.431Z,18.16
2023-06-07T23:52:44.324Z,18.12
2023-06-07T23:55:13.258Z,18.10
2023-06-07T23:57:42.037Z,18.08
